createdAt,value
2019-01-31T00:01:34.296Z,84.96
2019-01-31T00:04:20.844Z,84.97
2019-01-31T00:07:01.310Z,84.94
2019-01-31T00:09:38.770Z,84.91
2019-01-31T00:12:18.962Z,84.59
2019-01-31T00:14:53.465Z,84.70
2019-01-31T00:17:46.031Z,84.76
2019-01-31T00:20:20.184Z,85.22
2019-01-31T00:23:20.156Z,85.37
2019-01-31T00:26:02.924Z,85.74
2019-01-31T00:29:03.098Z,85.61
2019-01-31T00:31:55.650Z,85.30
2019-01-31T00:34:49.815Z,85.38
2019-01-31T00:37:21.322Z,85.11
2019-01-31T00:39:52.933Z,84.92
2019-01-31T00:42:24.451Z,84.99
2019-01-31T00:45:15.453Z,85.10
2019-01-31T00:47:55.504Z,85.16
2019-01-31T00:50:33.076Z,85.38
2019-01-31T00:53:34.730Z,85.24
2019-01-31T00:56:18.288Z,85.04
2019-01-31T00:59:12.334Z,85.49
2019-01-31T01:01:49.822Z,85.31
2019-01-31T01:04:30.133Z,85.54
2019-01-31T01:07:10.608Z,85.56
2019-01-31T01:09:53.926Z,84.90
2019-01-31T01:12:44.784Z,84.93
2019-01-31T01:15:43.468Z,84.83
2019-01-31T01:18:24.227Z,84.74
2019-01-31T01:21:03.847Z,84.52
2019-01-31T01:23:38.028Z,84.67
2019-01-31T01:26:15.444Z,84.45
2019-01-31T01:29:07.783Z,84.47
2019-01-31T01:32:05.013Z,84.52
2019-01-31T01:34:42.099Z,84.34
2019-01-31T01:37:19.140Z,83.98
2019-01-31T01:40:07.316Z,84.16
2019-01-31T01:42:41.312Z,84.74
2019-01-31T01:45:24.928Z,84.64
2019-01-31T01:47:59.497Z,84.52
2019-01-31T01:50:31.010Z,84.47
2019-01-31T01:53:26.552Z,84.33
2019-01-31T01:56:25.300Z,84.56
2019-01-31T01:59:07.953Z,84.30
2019-01-31T02:01:45.134Z,84.44
2019-01-31T02:04:22.340Z,84.43
2019-01-31T02:07:10.118Z,84.46
2019-01-31T02:09:56.313Z,84.24
2019-01-31T02:12:30.876Z,83.96
2019-01-31T02:15:08.228Z,84.13
2019-01-31T02:17:42.672Z,84.13
2019-01-31T02:20:24.901Z,84.24
2019-01-31T02:23:11.544Z,84.16
2019-01-31T02:26:02.632Z,84.08
2019-01-31T02:28:38.661Z,84.32
2019-01-31T02:31:19.105Z,83.98
2019-01-31T02:34:05.505Z,84.49
2019-01-31T02:36:42.648Z,84.56
2019-01-31T02:39:42.705Z,84.46
2019-01-31T02:42:24.837Z,84.04
2019-01-31T02:45:22.336Z,83.82
2019-01-31T02:48:02.658Z,83.94
2019-01-31T02:50:42.998Z,83.95
2019-01-31T02:53:32.789Z,83.64
2019-01-31T02:56:09.867Z,83.75
2019-01-31T02:58:44.227Z,83.48
2019-01-31T03:01:33.977Z,83.31
2019-01-31T03:04:05.506Z,83.42
2019-01-31T03:06:40.133Z,83.71
2019-01-31T03:09:11.652Z,83.71
2019-01-31T03:11:49.223Z,83.67
2019-01-31T03:14:20.958Z,84.18
2019-01-31T03:17:04.205Z,84.02
2019-01-31T03:19:38.561Z,84.12
2019-01-31T03:22:12.705Z,83.94
2019-01-31T03:24:46.997Z,84.47
2019-01-31T03:27:45.744Z,84.65
2019-01-31T03:30:33.641Z,83.79
2019-01-31T03:33:07.929Z,84.35
2019-01-31T03:35:42.223Z,84.27
2019-01-31T03:38:25.597Z,83.91
2019-01-31T03:41:18.304Z,84.08
2019-01-31T03:43:49.797Z,83.70
2019-01-31T03:46:35.973Z,83.95
2019-01-31T03:49:10.343Z,84.07
2019-01-31T03:52:07.309Z,83.93
2019-01-31T03:54:44.525Z,84.27
2019-01-31T03:57:32.419Z,84.46
2019-01-31T04:00:12.135Z,84.15
2019-01-31T04:02:52.390Z,84.47
2019-01-31T04:05:38.864Z,84.65
2019-01-31T04:08:07.504Z,84.34
2019-01-31T04:10:35.957Z,84.46
2019-01-31T04:13:04.589Z,84.44
2019-01-31T04:15:33.063Z,84.45
2019-01-31T04:18:01.501Z,84.83
2019-01-31T04:20:29.985Z,85.16
2019-01-31T04:22:59.966Z,84.83
2019-01-31T04:25:28.441Z,84.34
2019-01-31T04:27:56.926Z,84.59
2019-01-31T04:30:25.585Z,84.22
2019-01-31T04:32:54.035Z,84.48
2019-01-31T04:35:22.496Z,84.53
2019-01-31T04:37:50.993Z,83.95
2019-01-31T04:40:30.517Z,83.94
2019-01-31T04:42:49.587Z,83.65
2019-01-31T04:45:18.033Z,83.83
2019-01-31T04:47:46.488Z,84.18
2019-01-31T04:50:15.497Z,84.49
2019-01-31T04:52:43.957Z,84.04
2019-01-31T04:55:12.556Z,83.43
2019-01-31T04:57:41.025Z,83.98
2019-01-31T05:00:12.774Z,84.14
2019-01-31T05:02:41.316Z,83.66
2019-01-31T05:05:09.917Z,83.74
2019-01-31T05:07:38.369Z,83.29
2019-01-31T05:10:09.729Z,83.48
2019-01-31T05:12:38.193Z,83.58
2019-01-31T05:15:09.702Z,83.73
2019-01-31T05:17:38.179Z,83.82
2019-01-31T05:20:15.605Z,83.71
2019-01-31T05:22:44.115Z,83.61
2019-01-31T05:25:14.096Z,83.50
2019-01-31T05:27:42.560Z,84.00
2019-01-31T05:30:13.635Z,84.01
2019-01-31T05:32:42.124Z,84.55
2019-01-31T05:35:12.301Z,84.53
2019-01-31T05:37:40.783Z,84.64
2019-01-31T05:40:12.469Z,84.62
2019-01-31T05:42:40.944Z,84.81
2019-01-31T05:45:12.388Z,84.77
2019-01-31T05:47:40.907Z,84.73
2019-01-31T05:50:14.543Z,84.57
2019-01-31T05:52:43.202Z,84.68
2019-01-31T05:55:12.560Z,84.85
2019-01-31T05:57:41.027Z,85.02
2019-01-31T06:00:15.483Z,85.21
2019-01-31T06:02:43.967Z,85.03
2019-01-31T06:05:12.780Z,84.62
2019-01-31T06:07:41.243Z,85.22
2019-01-31T06:10:11.914Z,84.79
2019-01-31T06:12:40.370Z,84.89
2019-01-31T06:15:11.867Z,84.89
2019-01-31T06:17:40.333Z,85.17
2019-01-31T06:20:11.858Z,84.98
2019-01-31T06:22:40.313Z,85.15
2019-01-31T06:25:08.930Z,85.24
2019-01-31T06:27:37.453Z,85.32
2019-01-31T06:30:08.991Z,85.26
2019-01-31T06:32:37.479Z,85.21
2019-01-31T06:35:08.975Z,84.61
2019-01-31T06:37:37.419Z,84.50
2019-01-31T06:40:12.047Z,84.70
2019-01-31T06:42:40.558Z,85.22
2019-01-31T06:45:12.549Z,84.88
2019-01-31T06:47:40.995Z,85.09
2019-01-31T06:50:10.341Z,85.08
2019-01-31T06:52:38.773Z,84.88
2019-01-31T06:55:09.488Z,85.39
2019-01-31T06:57:37.927Z,85.36
2019-01-31T07:00:15.501Z,85.28
2019-01-31T07:02:43.939Z,85.30
2019-01-31T07:05:12.563Z,85.29
2019-01-31T07:07:41.027Z,85.15
2019-01-31T07:10:12.698Z,85.30
2019-01-31T07:12:41.147Z,85.03
2019-01-31T07:15:11.587Z,84.93
2019-01-31T07:17:40.012Z,85.24
2019-01-31T07:20:16.818Z,85.30
2019-01-31T07:22:45.515Z,85.22
2019-01-31T07:25:24.460Z,85.49
2019-01-31T07:27:53.585Z,85.44
2019-01-31T07:30:23.410Z,85.29
2019-01-31T07:32:51.947Z,85.02
2019-01-31T07:35:20.678Z,84.79
2019-01-31T07:37:49.128Z,84.47
2019-01-31T07:40:22.351Z,85.04
2019-01-31T07:42:50.854Z,84.63
2019-01-31T07:45:24.982Z,84.37
2019-01-31T07:47:53.424Z,84.10
2019-01-31T07:50:22.067Z,84.06
2019-01-31T07:52:51.394Z,83.88
2019-01-31T07:55:20.187Z,83.81
2019-01-31T07:57:48.634Z,83.77
2019-01-31T08:00:19.313Z,83.99
2019-01-31T08:02:47.767Z,83.49
2019-01-31T08:05:18.092Z,83.04
2019-01-31T08:07:50.360Z,83.50
2019-01-31T08:10:26.780Z,83.37
2019-01-31T08:12:55.562Z,83.31
2019-01-31T08:15:24.101Z,82.98
2019-01-31T08:17:52.551Z,82.90
2019-01-31T08:20:21.315Z,83.16
2019-01-31T08:22:49.763Z,83.28
2019-01-31T08:25:22.960Z,83.76
2019-01-31T08:27:52.357Z,83.71
2019-01-31T08:30:32.425Z,83.88
2019-01-31T08:33:00.906Z,83.75
2019-01-31T08:35:29.460Z,83.96
2019-01-31T08:37:57.955Z,82.89
2019-01-31T08:40:26.450Z,82.85
2019-01-31T08:42:55.093Z,83.30
2019-01-31T08:45:23.582Z,82.41
2019-01-31T08:47:52.049Z,83.04
2019-01-31T08:50:28.416Z,82.69
2019-01-31T08:52:56.604Z,82.66
2019-01-31T08:55:25.155Z,81.81
2019-01-31T08:57:53.633Z,82.06
2019-01-31T09:00:24.790Z,81.68
2019-01-31T09:02:53.325Z,81.46
2019-01-31T09:05:21.766Z,80.67
2019-01-31T09:07:50.225Z,81.06
2019-01-31T09:10:24.484Z,81.04
2019-01-31T09:12:52.950Z,81.91
2019-01-31T09:15:23.313Z,81.40
2019-01-31T09:17:52.057Z,80.98
2019-01-31T09:20:29.350Z,80.79
2019-01-31T09:23:03.771Z,81.09
2019-01-31T09:26:08.779Z,81.39
2019-01-31T09:28:42.948Z,81.46
2019-01-31T09:31:20.078Z,81.12
2019-01-31T09:33:54.375Z,81.06
2019-01-31T09:36:43.585Z,81.16
2019-01-31T09:39:30.349Z,80.84
2019-01-31T09:42:11.011Z,79.92
2019-01-31T09:44:48.641Z,80.11
2019-01-31T09:47:47.290Z,79.57
2019-01-31T09:50:24.527Z,79.38
2019-01-31T09:53:07.466Z,79.51
2019-01-31T09:55:41.853Z,79.85
2019-01-31T09:58:16.032Z,79.69
2019-01-31T10:01:17.938Z,79.69
2019-01-31T10:04:07.507Z,78.78
2019-01-31T10:06:44.877Z,79.10
2019-01-31T10:09:22.183Z,79.42
2019-01-31T10:12:02.611Z,78.99
2019-01-31T10:14:53.634Z,78.65
2019-01-31T10:17:36.448Z,78.08
2019-01-31T10:20:22.933Z,78.34
2019-01-31T10:22:57.031Z,77.80
2019-01-31T10:25:31.165Z,77.68
2019-01-31T10:28:20.295Z,78.20
2019-01-31T10:31:16.216Z,77.87
2019-01-31T10:34:22.564Z,78.09
2019-01-31T10:36:56.933Z,77.88
2019-01-31T10:39:54.308Z,77.35
2019-01-31T10:42:28.598Z,77.25
2019-01-31T10:45:22.809Z,76.94
2019-01-31T10:48:08.673Z,77.23
2019-01-31T10:50:58.647Z,76.52
2019-01-31T10:53:35.840Z,76.49
2019-01-31T10:56:07.366Z,76.60
2019-01-31T10:58:58.528Z,75.86
2019-01-31T11:01:30.021Z,75.98
2019-01-31T11:04:22.055Z,75.56
2019-01-31T11:06:56.153Z,75.61
2019-01-31T11:09:46.001Z,75.91
2019-01-31T11:12:29.581Z,75.48
2019-01-31T11:15:29.723Z,75.16
2019-01-31T11:18:10.041Z,74.47
2019-01-31T11:21:00.664Z,74.70
2019-01-31T11:23:41.060Z,75.09
2019-01-31T11:26:15.213Z,74.65
2019-01-31T11:28:49.618Z,74.08
2019-01-31T11:31:33.214Z,74.20
2019-01-31T11:34:07.668Z,74.03
2019-01-31T11:36:45.243Z,74.05
2019-01-31T11:39:45.866Z,73.23
2019-01-31T11:42:38.197Z,73.61
2019-01-31T11:45:35.654Z,73.57
2019-01-31T11:48:25.030Z,73.86
2019-01-31T11:51:05.708Z,73.38
2019-01-31T11:53:40.270Z,73.27
2019-01-31T11:56:24.085Z,73.61
2019-01-31T11:59:00.742Z,73.92
2019-01-31T12:01:29.626Z,73.50
2019-01-31T12:04:00.374Z,73.05
2019-01-31T12:06:28.908Z,73.22
2019-01-31T12:08:57.364Z,72.44
2019-01-31T12:11:25.833Z,72.38
2019-01-31T12:13:54.305Z,71.05
2019-01-31T12:16:22.928Z,70.88
2019-01-31T12:18:51.386Z,70.18
2019-01-31T12:21:19.860Z,69.70
2019-01-31T12:23:48.451Z,69.32
2019-01-31T12:26:16.984Z,69.89
2019-01-31T12:28:45.516Z,69.41
2019-01-31T12:31:14.056Z,68.85
2019-01-31T12:33:42.450Z,68.23
2019-01-31T12:36:11.088Z,67.51
2019-01-31T12:38:39.573Z,67.55
2019-01-31T12:41:08.061Z,66.79
2019-01-31T12:43:36.533Z,66.64
2019-01-31T12:46:05.343Z,66.70
2019-01-31T12:48:33.815Z,67.32
2019-01-31T12:51:02.271Z,67.36
2019-01-31T12:53:30.827Z,67.56
2019-01-31T12:55:59.301Z,67.49
2019-01-31T12:58:33.762Z,67.76
2019-01-31T13:00:57.964Z,67.85
2019-01-31T13:03:26.473Z,68.07
2019-01-31T13:05:54.919Z,68.33
2019-01-31T13:08:23.421Z,68.17
2019-01-31T13:10:51.935Z,68.49
2019-01-31T13:13:20.360Z,68.20
2019-01-31T13:15:48.879Z,68.74
2019-01-31T13:18:17.329Z,68.56
2019-01-31T13:20:45.971Z,68.45
2019-01-31T13:23:14.601Z,68.54
2019-01-31T13:25:43.233Z,68.93
2019-01-31T13:28:11.689Z,68.30
2019-01-31T13:30:40.130Z,68.34
2019-01-31T13:33:08.818Z,68.54
2019-01-31T13:35:37.407Z,68.62
2019-01-31T13:38:05.975Z,68.58
2019-01-31T13:40:34.485Z,68.40
2019-01-31T13:43:02.936Z,68.40
2019-01-31T13:45:35.723Z,67.84
2019-01-31T13:48:07.233Z,67.88
2019-01-31T13:50:35.716Z,67.82
2019-01-31T13:53:06.587Z,68.12
2019-01-31T13:55:35.211Z,68.30
2019-01-31T13:58:04.144Z,67.91
2019-01-31T14:00:32.675Z,67.51
2019-01-31T14:03:01.182Z,67.96
2019-01-31T14:05:30.127Z,67.40
2019-01-31T14:07:58.749Z,67.79
2019-01-31T14:10:27.989Z,68.42
2019-01-31T14:12:56.563Z,68.14
2019-01-31T14:15:33.417Z,67.77
2019-01-31T14:17:58.028Z,68.02
2019-01-31T14:20:28.140Z,68.21
2019-01-31T14:22:56.855Z,67.87
2019-01-31T14:25:25.657Z,68.18
2019-01-31T14:27:55.299Z,68.60
2019-01-31T14:30:29.758Z,68.86
2019-01-31T14:32:58.830Z,69.00
2019-01-31T14:35:28.126Z,69.00
2019-01-31T14:37:56.593Z,69.29
2019-01-31T14:40:25.506Z,69.77
2019-01-31T14:42:54.599Z,69.66
2019-01-31T14:45:23.064Z,69.67
2019-01-31T14:47:51.624Z,69.81
2019-01-31T14:50:22.945Z,70.04
2019-01-31T14:52:51.462Z,70.53
2019-01-31T14:55:19.934Z,70.70
2019-01-31T14:57:48.471Z,70.81
2019-01-31T15:00:19.590Z,70.07
2019-01-31T15:02:48.050Z,70.64
2019-01-31T15:05:17.453Z,70.51
2019-01-31T15:07:46.240Z,70.57
2019-01-31T15:10:20.232Z,71.52
2019-01-31T15:12:48.661Z,70.97
2019-01-31T15:15:17.676Z,71.31
2019-01-31T15:17:46.185Z,71.08
2019-01-31T15:20:35.880Z,70.86
2019-01-31T15:22:56.170Z,71.17
2019-01-31T15:25:24.795Z,71.00
2019-01-31T15:27:53.433Z,70.69
2019-01-31T15:30:27.569Z,70.95
2019-01-31T15:32:56.149Z,71.32
2019-01-31T15:35:24.626Z,71.28
2019-01-31T15:37:53.175Z,71.61
2019-01-31T15:40:30.896Z,71.70
2019-01-31T15:42:59.325Z,71.27
2019-01-31T15:45:27.922Z,71.63
2019-01-31T15:47:56.635Z,71.93
2019-01-31T15:50:25.557Z,72.30
2019-01-31T15:52:54.279Z,72.14
2019-01-31T15:55:25.216Z,72.27
2019-01-31T15:57:53.767Z,72.51
2019-01-31T16:00:41.558Z,72.72
2019-01-31T16:03:11.948Z,73.01
2019-01-31T16:05:40.580Z,72.95
2019-01-31T16:08:10.036Z,73.00
2019-01-31T16:10:38.576Z,73.20
2019-01-31T16:13:07.512Z,73.82
2019-01-31T16:15:36.506Z,74.09
2019-01-31T16:18:06.599Z,74.06
2019-01-31T16:20:35.015Z,74.30
2019-01-31T16:23:03.718Z,74.33
2019-01-31T16:25:32.290Z,74.69
2019-01-31T16:28:00.765Z,75.08
2019-01-31T16:30:29.413Z,75.69
2019-01-31T16:32:57.904Z,75.81
2019-01-31T16:35:26.631Z,76.34
2019-01-31T16:37:55.445Z,77.22
2019-01-31T16:40:24.566Z,77.28
2019-01-31T16:42:53.092Z,77.98
2019-01-31T16:45:21.627Z,78.04
2019-01-31T16:47:50.118Z,77.54
2019-01-31T16:50:21.166Z,78.03
2019-01-31T16:52:49.645Z,78.31
2019-01-31T16:55:23.982Z,78.28
2019-01-31T16:57:52.729Z,78.66
2019-01-31T17:00:32.987Z,78.85
2019-01-31T17:03:01.529Z,79.24
2019-01-31T17:05:32.141Z,79.12
2019-01-31T17:08:00.948Z,79.57
2019-01-31T17:10:29.593Z,79.69
2019-01-31T17:12:58.071Z,79.78
2019-01-31T17:15:27.098Z,79.97
2019-01-31T17:17:55.671Z,80.28
2019-01-31T17:20:36.475Z,80.70
2019-01-31T17:23:05.993Z,81.00
2019-01-31T17:25:34.615Z,81.25
2019-01-31T17:28:03.118Z,81.41
2019-01-31T17:30:31.637Z,81.39
2019-01-31T17:33:00.538Z,81.89
2019-01-31T17:35:29.138Z,81.84
2019-01-31T17:37:57.589Z,82.78
2019-01-31T17:40:29.179Z,82.52
2019-01-31T17:42:57.632Z,82.60
2019-01-31T17:45:30.618Z,83.37
2019-01-31T17:47:56.915Z,83.76
2019-01-31T17:50:25.379Z,84.01
2019-01-31T17:52:53.857Z,83.94
2019-01-31T17:55:41.598Z,83.92
2019-01-31T17:58:09.782Z,84.02
2019-01-31T18:00:44.656Z,84.74
2019-01-31T18:03:13.124Z,84.98
2019-01-31T18:05:41.653Z,84.96
2019-01-31T18:08:10.190Z,84.95
2019-01-31T18:10:41.605Z,84.75
2019-01-31T18:13:10.056Z,84.90
2019-01-31T18:15:42.356Z,84.99
2019-01-31T18:18:08.981Z,85.39
2019-01-31T18:20:37.470Z,85.64
2019-01-31T18:23:05.933Z,85.81
2019-01-31T18:25:34.504Z,85.96
2019-01-31T18:28:02.951Z,85.73
2019-01-31T18:30:34.189Z,85.39
2019-01-31T18:33:04.193Z,85.52
2019-01-31T18:35:32.924Z,85.34
2019-01-31T18:38:01.385Z,86.05
2019-01-31T18:40:34.585Z,86.16
2019-01-31T18:43:03.143Z,86.17
2019-01-31T18:45:34.047Z,86.62
2019-01-31T18:48:02.999Z,86.80
2019-01-31T18:50:36.833Z,86.14
2019-01-31T18:53:05.634Z,86.27
2019-01-31T18:55:34.191Z,86.10
2019-01-31T18:58:02.789Z,86.43
2019-01-31T19:00:37.034Z,86.62
2019-01-31T19:03:05.985Z,86.79
2019-01-31T19:05:36.244Z,86.76
2019-01-31T19:08:08.603Z,87.47
2019-01-31T19:10:42.885Z,87.28
2019-01-31T19:13:06.011Z,87.42
2019-01-31T19:15:34.497Z,87.24
2019-01-31T19:18:05.929Z,86.91
2019-01-31T19:20:33.397Z,86.90
2019-01-31T19:23:04.010Z,87.00
2019-01-31T19:25:32.626Z,86.84
2019-01-31T19:28:01.136Z,87.56
2019-01-31T19:30:31.630Z,87.03
2019-01-31T19:33:00.197Z,87.00
2019-01-31T19:35:28.717Z,86.65
2019-01-31T19:38:01.937Z,86.73
2019-01-31T19:40:30.072Z,86.67
2019-01-31T19:42:58.660Z,86.36
2019-01-31T19:45:30.141Z,86.71
2019-01-31T19:47:58.689Z,86.39
2019-01-31T19:50:28.675Z,86.26
2019-01-31T19:52:57.308Z,86.05
2019-01-31T19:55:27.141Z,85.86
2019-01-31T19:57:55.704Z,86.33
2019-01-31T20:00:25.929Z,86.36
2019-01-31T20:02:54.853Z,86.12
2019-01-31T20:05:23.504Z,86.41
2019-01-31T20:07:52.129Z,86.66
2019-01-31T20:10:26.307Z,86.09
2019-01-31T20:12:55.252Z,86.21
2019-01-31T20:15:24.074Z,86.00
2019-01-31T20:17:52.691Z,86.56
2019-01-31T20:20:26.321Z,86.76
2019-01-31T20:22:55.683Z,87.04
2019-01-31T20:25:24.611Z,87.23
2019-01-31T20:27:53.148Z,87.02
2019-01-31T20:30:26.977Z,86.91
2019-01-31T20:32:57.361Z,86.42
2019-01-31T20:35:26.090Z,86.87
2019-01-31T20:37:54.649Z,86.60
2019-01-31T20:40:34.633Z,86.50
2019-01-31T20:43:04.606Z,86.61
2019-01-31T20:45:33.248Z,86.59
2019-01-31T20:48:01.749Z,86.63
2019-01-31T20:50:35.426Z,87.15
2019-01-31T20:53:04.573Z,86.95
2019-01-31T20:55:33.121Z,87.68
2019-01-31T20:58:03.245Z,87.74
2019-01-31T21:00:35.020Z,87.48
2019-01-31T21:03:05.101Z,87.15
2019-01-31T21:05:33.929Z,87.23
2019-01-31T21:08:02.460Z,87.30
2019-01-31T21:10:31.006Z,87.56
2019-01-31T21:13:00.828Z,87.05
2019-01-31T21:15:29.468Z,87.31
2019-01-31T21:17:59.462Z,87.50
2019-01-31T21:20:28.101Z,87.98
2019-01-31T21:22:57.796Z,88.34
2019-01-31T21:25:26.436Z,88.43
2019-01-31T21:27:55.088Z,88.16
2019-01-31T21:30:29.267Z,88.04
2019-01-31T21:32:57.819Z,88.37
2019-01-31T21:35:27.734Z,88.73
2019-01-31T21:37:56.292Z,88.95
2019-01-31T21:40:26.914Z,89.00
2019-01-31T21:42:55.451Z,88.99
2019-01-31T21:45:25.095Z,88.98
2019-01-31T21:47:54.660Z,88.95
2019-01-31T21:50:28.868Z,89.15
2019-01-31T21:52:57.572Z,88.95
2019-01-31T21:55:26.153Z,89.30
2019-01-31T21:57:54.609Z,89.20
2019-01-31T22:00:28.939Z,89.13
2019-01-31T22:02:57.402Z,89.77
2019-01-31T22:05:27.411Z,89.87
2019-01-31T22:07:56.023Z,89.93
2019-01-31T22:10:24.748Z,89.87
2019-01-31T22:12:53.273Z,90.08
2019-01-31T22:15:24.114Z,90.02
2019-01-31T22:17:52.595Z,90.08
2019-01-31T22:20:21.033Z,89.93
2019-01-31T22:22:49.563Z,90.05
2019-01-31T22:25:20.197Z,89.88
2019-01-31T22:27:48.737Z,89.71
2019-01-31T22:30:28.719Z,89.55
2019-01-31T22:32:57.168Z,90.06
2019-01-31T22:35:26.344Z,90.02
2019-01-31T22:37:54.819Z,90.16
2019-01-31T22:40:23.259Z,90.04
2019-01-31T22:42:51.738Z,90.33
2019-01-31T22:45:24.667Z,90.26
2019-01-31T22:47:53.554Z,90.26
2019-01-31T22:50:25.482Z,90.59
2019-01-31T22:52:54.098Z,90.29
2019-01-31T22:55:26.929Z,90.93
2019-01-31T22:57:55.453Z,91.01
2019-01-31T23:01:02.471Z,91.13
2019-01-31T23:03:30.937Z,91.23
2019-01-31T23:05:59.389Z,91.73
2019-01-31T23:08:27.858Z,91.97
2019-01-31T23:10:56.468Z,91.72
2019-01-31T23:13:24.919Z,91.82
2019-01-31T23:15:53.465Z,91.69
2019-01-31T23:18:21.943Z,91.58
2019-01-31T23:20:50.413Z,91.09
2019-01-31T23:23:18.869Z,90.92
2019-01-31T23:25:47.324Z,90.93
2019-01-31T23:28:15.782Z,90.91
2019-01-31T23:30:44.240Z,91.12
2019-01-31T23:33:13.450Z,90.97
2019-01-31T23:35:41.934Z,91.15
2019-01-31T23:38:10.391Z,91.23
2019-01-31T23:40:38.854Z,91.16
2019-01-31T23:43:07.498Z,91.44
2019-01-31T23:45:35.950Z,91.49
2019-01-31T23:48:04.712Z,91.55
2019-01-31T23:50:33.297Z,91.20
2019-01-31T23:53:01.740Z,90.97
2019-01-31T23:55:30.181Z,90.83
2019-01-31T23:57:58.666Z,90.75
